createdAt,value
2018-08-25T00:00:44.310Z,45.49
2018-08-25T00:01:48.595Z,45.11
2018-08-25T00:02:52.818Z,45.66
2018-08-25T00:03:57.362Z,45.51
2018-08-25T00:05:01.611Z,45.63
2018-08-25T00:06:06.019Z,45.58
2018-08-25T00:07:10.315Z,45.77
2018-08-25T00:08:14.495Z,45.21
2018-08-25T00:09:18.735Z,45.21
2018-08-25T00:10:22.942Z,45.42
2018-08-25T00:11:27.119Z,45.70
2018-08-25T00:12:31.283Z,45.63
2018-08-25T00:13:35.456Z,44.99
2018-08-25T00:14:39.642Z,45.64
2018-08-25T00:15:43.855Z,45.23
2018-08-25T00:16:48.173Z,45.62
2018-08-25T00:17:52.519Z,44.97
2018-08-25T00:18:56.719Z,45.65
2018-08-25T00:20:00.914Z,45.51
2018-08-25T00:21:05.403Z,45.79
2018-08-25T00:22:09.568Z,45.42
2018-08-25T00:23:13.815Z,45.36
2018-08-25T00:24:17.976Z,45.38
2018-08-25T00:25:22.223Z,44.95
2018-08-25T00:26:26.489Z,45.32
2018-08-25T00:27:30.838Z,46.08
2018-08-25T00:28:34.978Z,45.46
2018-08-25T00:29:39.153Z,45.90
2018-08-25T00:30:48.683Z,45.41
2018-08-25T00:31:53.371Z,45.17
2018-08-25T00:32:57.534Z,45.63
2018-08-25T00:34:01.846Z,45.34
2018-08-25T00:35:06.020Z,45.57
2018-08-25T00:36:10.205Z,45.74
2018-08-25T00:37:14.399Z,45.71
2018-08-25T00:38:18.587Z,45.68
2018-08-25T00:39:22.751Z,45.83
2018-08-25T00:40:27.081Z,45.12
2018-08-25T00:41:31.235Z,45.94
2018-08-25T00:42:35.467Z,45.20
2018-08-25T00:43:39.720Z,45.23
2018-08-25T00:44:44.022Z,45.23
2018-08-25T00:45:48.243Z,45.47
2018-08-25T00:46:52.449Z,45.57
2018-08-25T00:47:56.664Z,45.89
2018-08-25T00:49:00.995Z,45.95
2018-08-25T00:50:05.289Z,45.66
2018-08-25T00:51:09.530Z,45.41
2018-08-25T00:52:13.912Z,45.39
2018-08-25T00:53:18.124Z,46.15
2018-08-25T00:54:22.417Z,46.04
2018-08-25T00:55:26.683Z,45.73
2018-08-25T00:56:30.866Z,45.60
2018-08-25T00:57:35.075Z,46.10
2018-08-25T00:58:39.347Z,46.32
2018-08-25T00:59:43.550Z,45.61
2018-08-25T01:00:48.300Z,45.49
2018-08-25T01:01:52.483Z,46.00
2018-08-25T01:02:56.690Z,46.06
2018-08-25T01:04:00.905Z,45.74
2018-08-25T01:05:05.096Z,46.03
2018-08-25T01:06:09.363Z,46.20
2018-08-25T01:07:13.523Z,46.63
2018-08-25T01:08:17.740Z,46.41
2018-08-25T01:09:22.314Z,46.41
2018-08-25T01:10:26.518Z,46.19
2018-08-25T01:11:30.720Z,46.15
2018-08-25T01:12:35.166Z,46.71
2018-08-25T01:13:39.655Z,46.30
2018-08-25T01:14:43.907Z,46.85
2018-08-25T01:15:48.626Z,46.57
2018-08-25T01:16:52.720Z,46.74
2018-08-25T01:17:56.972Z,46.41
2018-08-25T01:19:01.090Z,47.00
2018-08-25T01:20:05.436Z,47.07
2018-08-25T01:21:09.762Z,47.00
2018-08-25T01:22:13.943Z,46.95
2018-08-25T01:23:18.185Z,46.52
2018-08-25T01:24:22.381Z,47.16
2018-08-25T01:25:26.587Z,47.08
2018-08-25T01:26:30.825Z,47.26
2018-08-25T01:27:35.034Z,46.95
2018-08-25T01:28:39.182Z,47.26
2018-08-25T01:29:43.355Z,47.29
2018-08-25T01:30:47.543Z,47.47
2018-08-25T01:31:52.203Z,47.29
2018-08-25T01:32:56.364Z,47.07
2018-08-25T01:34:01.483Z,47.45
2018-08-25T01:35:05.818Z,47.33
2018-08-25T01:36:10.158Z,47.09
2018-08-25T01:37:14.340Z,47.45
2018-08-25T01:38:18.508Z,46.94
2018-08-25T01:39:22.735Z,46.88
2018-08-25T01:40:26.907Z,47.25
2018-08-25T01:41:31.232Z,46.64
2018-08-25T01:42:35.375Z,46.82
2018-08-25T01:43:39.781Z,47.33
2018-08-25T01:44:44.103Z,47.02
2018-08-25T01:45:48.263Z,47.07
2018-08-25T01:46:52.476Z,47.08
2018-08-25T01:47:56.770Z,47.35
2018-08-25T01:49:00.926Z,47.06
2018-08-25T01:50:05.282Z,47.50
2018-08-25T01:51:09.429Z,47.59
2018-08-25T01:52:13.898Z,47.09
2018-08-25T01:53:18.066Z,47.61
2018-08-25T01:54:22.240Z,47.32
2018-08-25T01:55:26.600Z,47.02
2018-08-25T01:56:30.811Z,47.10
2018-08-25T01:57:35.238Z,46.92
2018-08-25T01:58:39.469Z,47.16
2018-08-25T01:59:43.695Z,47.10
2018-08-25T02:00:47.886Z,47.70
2018-08-25T02:01:52.183Z,47.00
2018-08-25T02:02:56.367Z,47.30
2018-08-25T02:04:00.541Z,47.68
2018-08-25T02:05:04.699Z,47.39
2018-08-25T02:06:08.876Z,47.71
2018-08-25T02:07:13.037Z,47.59
2018-08-25T02:08:17.254Z,47.53
2018-08-25T02:09:21.453Z,47.59
2018-08-25T02:10:25.620Z,48.03
2018-08-25T02:11:29.795Z,48.09
2018-08-25T02:12:33.954Z,48.03
2018-08-25T02:13:38.142Z,48.26
2018-08-25T02:14:42.414Z,48.55
2018-08-25T02:15:46.584Z,48.87
2018-08-25T02:16:50.923Z,49.42
2018-08-25T02:17:55.399Z,49.61
2018-08-25T02:18:59.642Z,49.52
2018-08-25T02:20:04.121Z,50.05
2018-08-25T02:21:08.331Z,51.00
2018-08-25T02:22:12.512Z,50.04
2018-08-25T02:23:16.690Z,50.62
2018-08-25T02:24:20.875Z,51.46
2018-08-25T02:25:25.284Z,51.34
2018-08-25T02:26:29.455Z,52.15
2018-08-25T02:27:33.627Z,51.83
2018-08-25T02:28:38.000Z,51.99
2018-08-25T02:29:42.185Z,51.85
2018-08-25T02:30:46.380Z,52.34
2018-08-25T02:31:50.642Z,52.17
2018-08-25T02:32:54.867Z,52.36
2018-08-25T02:33:59.071Z,52.65
2018-08-25T02:35:03.363Z,51.99
2018-08-25T02:36:07.787Z,52.81
2018-08-25T02:37:12.203Z,53.09
2018-08-25T02:38:16.380Z,53.08
2018-08-25T02:39:20.561Z,52.71
2018-08-25T02:40:26.935Z,52.96
2018-08-25T02:41:31.122Z,53.17
2018-08-25T02:42:35.639Z,53.17
2018-08-25T02:43:40.107Z,53.48
2018-08-25T02:44:44.293Z,53.19
2018-08-25T02:45:48.507Z,53.63
2018-08-25T02:46:54.117Z,54.06
2018-08-25T02:47:58.814Z,54.12
2018-08-25T02:49:02.975Z,54.25
2018-08-25T02:50:07.191Z,54.69
2018-08-25T02:51:11.575Z,54.43
2018-08-25T02:52:16.044Z,55.18
2018-08-25T02:53:20.192Z,54.87
2018-08-25T02:54:24.415Z,55.52
2018-08-25T02:55:28.684Z,55.52
2018-08-25T02:56:33.068Z,55.76
2018-08-25T02:57:37.247Z,56.20
2018-08-25T02:58:41.478Z,55.94
2018-08-25T02:59:45.836Z,57.08
2018-08-25T03:00:50.019Z,57.25
2018-08-25T03:01:54.268Z,56.86
2018-08-25T03:02:58.503Z,57.43
2018-08-25T03:04:02.655Z,57.42
2018-08-25T03:05:06.875Z,58.00
2018-08-25T03:06:11.064Z,58.10
2018-08-25T03:07:15.324Z,58.10
2018-08-25T03:08:19.468Z,58.28
2018-08-25T03:09:23.951Z,58.56
2018-08-25T03:10:28.121Z,58.96
2018-08-25T03:11:32.510Z,59.48
2018-08-25T03:12:36.750Z,59.33
2018-08-25T03:13:40.936Z,59.34
2018-08-25T03:14:45.274Z,59.73
2018-08-25T03:15:49.656Z,60.13
2018-08-25T03:16:53.847Z,60.40
2018-08-25T03:17:58.067Z,60.75
2018-08-25T03:19:02.411Z,60.37
2018-08-25T03:20:06.576Z,61.30
2018-08-25T03:21:10.759Z,61.44
2018-08-25T03:22:14.907Z,61.58
2018-08-25T03:23:19.102Z,62.45
2018-08-25T03:24:23.308Z,62.47
2018-08-25T03:25:27.456Z,63.13
2018-08-25T03:26:31.657Z,63.52
2018-08-25T03:27:36.039Z,63.73
2018-08-25T03:28:40.383Z,63.55
2018-08-25T03:29:44.759Z,64.03
2018-08-25T03:30:48.931Z,64.20
2018-08-25T03:31:53.107Z,63.83
2018-08-25T03:32:57.309Z,63.88
2018-08-25T03:34:01.579Z,64.70
2018-08-25T03:35:05.871Z,65.00
2018-08-25T03:36:10.049Z,64.75
2018-08-25T03:37:14.298Z,64.68
2018-08-25T03:38:18.501Z,65.00
2018-08-25T03:39:22.716Z,66.17
2018-08-25T03:40:27.103Z,66.04
2018-08-25T03:41:31.299Z,65.59
2018-08-25T03:42:35.525Z,66.11
2018-08-25T03:43:39.674Z,66.35
2018-08-25T03:44:44.011Z,65.71
2018-08-25T03:45:48.140Z,65.47
2018-08-25T03:46:52.355Z,66.26
2018-08-25T03:47:56.535Z,65.76
2018-08-25T03:49:00.720Z,65.90
2018-08-25T03:50:05.071Z,65.87
2018-08-25T03:51:09.285Z,66.61
2018-08-25T03:52:13.594Z,66.53
2018-08-25T03:53:17.804Z,66.38
2018-08-25T03:54:21.974Z,66.38
2018-08-25T03:55:26.228Z,66.50
2018-08-25T03:56:30.411Z,66.29
2018-08-25T03:57:34.568Z,66.54
2018-08-25T03:58:38.736Z,66.00
2018-08-25T03:59:43.116Z,66.14
2018-08-25T04:00:47.682Z,66.25
2018-08-25T04:01:51.843Z,66.51
2018-08-25T04:02:56.026Z,66.31
2018-08-25T04:04:00.223Z,66.32
2018-08-25T04:05:04.927Z,66.28
2018-08-25T04:06:09.131Z,67.10
2018-08-25T04:07:13.474Z,67.25
2018-08-25T04:08:17.829Z,66.77
2018-08-25T04:09:22.169Z,67.41
2018-08-25T04:10:26.667Z,67.24
2018-08-25T04:11:30.851Z,67.20
2018-08-25T04:12:34.991Z,67.28
2018-08-25T04:13:39.138Z,66.93
2018-08-25T04:14:43.392Z,66.44
2018-08-25T04:15:47.728Z,66.51
2018-08-25T04:16:51.872Z,66.52
2018-08-25T04:17:56.010Z,67.18
2018-08-25T04:19:00.227Z,66.65
2018-08-25T04:20:04.419Z,66.38
2018-08-25T04:21:08.632Z,66.77
2018-08-25T04:22:12.800Z,66.88
2018-08-25T04:23:16.950Z,66.19
2018-08-25T04:24:21.495Z,66.91
2018-08-25T04:25:25.652Z,66.62
2018-08-25T04:26:29.815Z,67.27
2018-08-25T04:27:34.088Z,66.79
2018-08-25T04:28:38.204Z,67.55
2018-08-25T04:29:42.395Z,67.00
2018-08-25T04:30:46.554Z,67.71
2018-08-25T04:31:50.908Z,67.12
2018-08-25T04:32:55.100Z,67.51
2018-08-25T04:33:59.252Z,67.24
2018-08-25T04:35:03.446Z,67.64
2018-08-25T04:36:07.810Z,67.82
2018-08-25T04:37:11.988Z,68.02
2018-08-25T04:38:16.240Z,68.10
2018-08-25T04:39:20.397Z,68.01
2018-08-25T04:40:24.583Z,68.62
2018-08-25T04:41:28.725Z,68.53
2018-08-25T04:42:32.884Z,69.43
2018-08-25T04:43:37.091Z,69.47
2018-08-25T04:44:41.222Z,69.07
2018-08-25T04:45:45.564Z,69.34
2018-08-25T04:46:49.735Z,70.06
2018-08-25T04:47:53.890Z,70.16
2018-08-25T04:48:58.318Z,69.65
2018-08-25T04:50:02.591Z,69.92
2018-08-25T04:51:06.785Z,69.74
2018-08-25T04:52:11.113Z,69.64
2018-08-25T04:53:15.275Z,69.51
2018-08-25T04:54:19.777Z,69.76
2018-08-25T04:55:23.959Z,70.46
2018-08-25T04:56:28.183Z,70.05
2018-08-25T04:57:32.403Z,70.09
2018-08-25T04:58:36.741Z,70.52
2018-08-25T04:59:41.060Z,70.68
2018-08-25T05:00:45.196Z,69.95
2018-08-25T05:01:49.412Z,69.94
2018-08-25T05:02:53.777Z,69.86
2018-08-25T05:03:57.929Z,69.74
2018-08-25T05:05:02.190Z,69.92
2018-08-25T05:06:06.392Z,70.09
2018-08-25T05:07:10.671Z,70.15
2018-08-25T05:08:14.846Z,70.19
2018-08-25T05:09:19.122Z,69.94
2018-08-25T05:10:23.343Z,69.35
2018-08-25T05:11:27.835Z,70.18
2018-08-25T05:12:31.981Z,69.63
2018-08-25T05:13:36.122Z,70.13
2018-08-25T05:14:40.274Z,69.55
2018-08-25T05:15:44.488Z,69.95
2018-08-25T05:16:48.772Z,69.79
2018-08-25T05:17:52.920Z,69.83
2018-08-25T05:18:57.092Z,70.11
2018-08-25T05:20:01.375Z,69.53
2018-08-25T05:21:05.645Z,69.97
2018-08-25T05:22:10.075Z,69.66
2018-08-25T05:23:14.260Z,69.26
2018-08-25T05:24:18.437Z,69.91
2018-08-25T05:25:22.802Z,69.27
2018-08-25T05:26:26.958Z,69.50
2018-08-25T05:27:31.287Z,69.73
2018-08-25T05:28:35.432Z,69.70
2018-08-25T05:29:39.623Z,69.03
2018-08-25T05:30:43.963Z,69.67
2018-08-25T05:31:48.136Z,69.35
2018-08-25T05:32:52.284Z,69.24
2018-08-25T05:33:56.636Z,69.60
2018-08-25T05:35:00.751Z,69.74
2018-08-25T05:36:04.903Z,69.51
2018-08-25T05:37:09.099Z,68.87
2018-08-25T05:38:13.263Z,69.29
2018-08-25T05:39:17.394Z,69.38
2018-08-25T05:40:21.738Z,68.92
2018-08-25T05:41:25.982Z,69.57
2018-08-25T05:42:30.215Z,69.56
2018-08-25T05:43:34.421Z,68.61
2018-08-25T05:44:38.714Z,69.23
2018-08-25T05:45:43.212Z,69.06
2018-08-25T05:46:47.352Z,68.50
2018-08-25T05:47:51.532Z,68.37
2018-08-25T05:48:55.708Z,69.32
2018-08-25T05:49:59.890Z,68.54
2018-08-25T05:51:04.107Z,68.57
2018-08-25T05:52:08.303Z,68.50
2018-08-25T05:53:12.479Z,68.83
2018-08-25T05:54:16.653Z,68.64
2018-08-25T05:55:20.793Z,69.11
2018-08-25T05:56:25.229Z,68.76
2018-08-25T05:57:29.642Z,68.80
2018-08-25T05:58:33.892Z,68.24
2018-08-25T05:59:38.040Z,68.63
2018-08-25T06:00:42.289Z,68.51
2018-08-25T06:01:46.496Z,68.74
2018-08-25T06:02:50.687Z,67.98
2018-08-25T06:03:55.212Z,68.37
2018-08-25T06:04:59.357Z,67.80
2018-08-25T06:06:03.499Z,68.44
2018-08-25T06:07:07.760Z,67.64
2018-08-25T06:08:11.943Z,68.18
2018-08-25T06:09:16.132Z,68.17
2018-08-25T06:10:20.347Z,67.19
2018-08-25T06:11:24.476Z,67.10
2018-08-25T06:12:29.174Z,67.64
2018-08-25T06:13:33.400Z,67.73
2018-08-25T06:14:37.673Z,66.96
2018-08-25T06:15:42.093Z,66.95
2018-08-25T06:16:46.273Z,66.78
2018-08-25T06:17:50.461Z,66.61
2018-08-25T06:18:54.675Z,66.73
2018-08-25T06:19:58.914Z,66.80
2018-08-25T06:21:03.147Z,66.33
2018-08-25T06:22:07.327Z,66.32
2018-08-25T06:23:11.539Z,66.12
2018-08-25T06:24:15.863Z,66.63
2018-08-25T06:25:20.079Z,66.57
2018-08-25T06:26:24.259Z,66.59
2018-08-25T06:27:28.454Z,66.05
2018-08-25T06:28:32.899Z,65.79
2018-08-25T06:29:37.088Z,66.17
2018-08-25T06:30:41.292Z,65.74
2018-08-25T06:31:45.453Z,65.75
2018-08-25T06:32:49.622Z,65.88
2018-08-25T06:33:53.906Z,65.37
2018-08-25T06:34:58.096Z,65.31
2018-08-25T06:36:02.471Z,65.89
2018-08-25T06:37:06.675Z,65.89
2018-08-25T06:38:11.110Z,65.86
2018-08-25T06:39:15.243Z,65.15
2018-08-25T06:40:19.670Z,65.51
2018-08-25T06:41:23.811Z,65.13
2018-08-25T06:42:28.021Z,65.30
2018-08-25T06:43:32.150Z,65.51
2018-08-25T06:44:36.352Z,64.91
2018-08-25T06:45:40.536Z,64.84
2018-08-25T06:46:44.716Z,65.38
2018-08-25T06:47:48.935Z,65.13
2018-08-25T06:48:53.095Z,65.22
2018-08-25T06:49:57.484Z,64.92
2018-08-25T06:51:01.672Z,65.37
2018-08-25T06:52:06.464Z,64.96
2018-08-25T06:53:10.834Z,64.60
2018-08-25T06:54:15.001Z,64.39
2018-08-25T06:55:19.212Z,64.38
2018-08-25T06:56:23.379Z,64.44
2018-08-25T06:57:27.591Z,64.17
2018-08-25T06:58:31.762Z,63.75
2018-08-25T06:59:36.131Z,64.05
2018-08-25T07:00:40.238Z,63.40
2018-08-25T07:01:44.437Z,63.33
2018-08-25T07:02:48.643Z,63.62
2018-08-25T07:03:52.904Z,63.24
2018-08-25T07:04:57.084Z,63.03
2018-08-25T07:06:01.292Z,63.59
2018-08-25T07:07:05.802Z,62.74
2018-08-25T07:08:09.992Z,63.15
2018-08-25T07:09:14.263Z,63.17
2018-08-25T07:10:18.868Z,62.24
2018-08-25T07:11:23.129Z,62.13
2018-08-25T07:12:27.271Z,62.50
2018-08-25T07:13:31.823Z,61.81
2018-08-25T07:14:36.002Z,62.29
2018-08-25T07:15:40.259Z,61.63
2018-08-25T07:16:44.469Z,61.76
2018-08-25T07:17:48.665Z,61.58
2018-08-25T07:18:52.903Z,61.11
2018-08-25T07:19:57.153Z,61.56
2018-08-25T07:21:01.348Z,61.22
2018-08-25T07:23:09.013Z,60.95
2018-08-25T07:24:13.275Z,61.72
2018-08-25T07:25:17.503Z,61.26
2018-08-25T07:26:21.762Z,61.18
2018-08-25T07:27:25.911Z,61.40
2018-08-25T07:28:30.099Z,60.91
2018-08-25T07:29:34.294Z,61.28
2018-08-25T07:30:38.454Z,60.18
2018-08-25T07:31:42.602Z,60.24
2018-08-25T07:32:46.863Z,60.59
2018-08-25T07:33:51.339Z,60.98
2018-08-25T07:34:55.739Z,60.32
2018-08-25T07:35:59.955Z,60.83
2018-08-25T07:37:04.140Z,60.49
2018-08-25T07:38:08.420Z,60.14
2018-08-25T07:39:13.734Z,59.67
2018-08-25T07:40:17.940Z,60.12
2018-08-25T07:41:22.118Z,60.15
2018-08-25T07:42:26.318Z,59.50
2018-08-25T07:43:30.504Z,60.12
2018-08-25T07:44:34.715Z,59.47
2018-08-25T07:45:38.951Z,59.86
2018-08-25T07:46:43.205Z,59.03
2018-08-25T07:47:47.513Z,59.74
2018-08-25T07:48:51.820Z,59.53
2018-08-25T07:49:56.086Z,59.24
2018-08-25T07:51:00.385Z,60.05
2018-08-25T07:52:04.539Z,59.22
2018-08-25T07:53:08.847Z,58.95
2018-08-25T07:54:13.060Z,58.93
2018-08-25T07:55:17.255Z,58.54
2018-08-25T07:56:21.419Z,58.73
2018-08-25T07:57:25.767Z,58.83
2018-08-25T07:58:30.267Z,58.83
2018-08-25T07:59:34.407Z,58.77
2018-08-25T08:00:38.568Z,58.34
2018-08-25T08:01:42.945Z,58.44
2018-08-25T08:02:47.202Z,57.92
2018-08-25T08:03:51.348Z,58.28
2018-08-25T08:04:55.533Z,58.11
2018-08-25T08:05:59.729Z,57.99
2018-08-25T08:07:04.229Z,57.41
2018-08-25T08:08:08.420Z,57.42
2018-08-25T08:09:12.639Z,57.62
2018-08-25T08:10:16.796Z,57.50
2018-08-25T08:11:21.048Z,56.78
2018-08-25T08:12:25.357Z,57.51
2018-08-25T08:13:29.664Z,57.14
2018-08-25T08:14:34.135Z,57.82
2018-08-25T08:15:38.303Z,57.17
2018-08-25T08:16:42.505Z,57.11
2018-08-25T08:17:46.684Z,56.75
2018-08-25T08:18:50.870Z,57.15
2018-08-25T08:19:55.027Z,57.08
2018-08-25T08:20:59.171Z,57.18
2018-08-25T08:22:03.339Z,56.56
2018-08-25T08:23:07.587Z,56.70
2018-08-25T08:24:11.776Z,55.88
2018-08-25T08:25:15.950Z,55.75
2018-08-25T08:26:20.125Z,56.48
2018-08-25T08:27:24.287Z,55.59
2018-08-25T08:28:28.537Z,56.17
2018-08-25T08:29:32.661Z,55.78
2018-08-25T08:30:36.994Z,56.12
2018-08-25T08:31:41.161Z,55.57
2018-08-25T08:32:45.457Z,55.93
2018-08-25T08:33:49.630Z,55.99
2018-08-25T08:34:53.972Z,54.87
2018-08-25T08:35:58.107Z,54.93
2018-08-25T08:37:02.246Z,54.72
2018-08-25T08:38:06.431Z,54.81
2018-08-25T08:39:10.949Z,54.97
2018-08-25T08:40:15.122Z,54.94
2018-08-25T08:41:19.816Z,54.84
2018-08-25T08:42:24.007Z,55.10
2018-08-25T08:43:28.122Z,54.67
2018-08-25T08:44:32.329Z,54.95
2018-08-25T08:45:36.533Z,54.56
2018-08-25T08:46:40.700Z,54.73
2018-08-25T08:47:44.886Z,54.47
2018-08-25T08:48:49.202Z,54.80
2018-08-25T08:49:53.409Z,54.55
2018-08-25T08:50:57.695Z,54.83
2018-08-25T08:52:02.276Z,54.54
2018-08-25T08:53:06.850Z,54.28
2018-08-25T08:54:11.028Z,53.52
2018-08-25T08:55:15.215Z,54.26
2018-08-25T08:56:19.423Z,53.69
2018-08-25T08:57:23.607Z,53.41
2018-08-25T08:58:27.782Z,54.01
2018-08-25T08:59:31.914Z,53.73
2018-08-25T09:00:36.121Z,54.02
2018-08-25T09:01:40.272Z,53.07
2018-08-25T09:02:44.539Z,53.20
2018-08-25T09:03:48.732Z,53.30
2018-08-25T09:04:52.983Z,52.46
2018-08-25T09:05:57.177Z,52.65
2018-08-25T09:07:01.559Z,52.55
2018-08-25T09:08:06.009Z,52.56
2018-08-25T09:09:10.888Z,51.87
2018-08-25T09:10:15.229Z,52.24
2018-08-25T09:11:19.468Z,52.30
2018-08-25T09:12:23.635Z,52.13
2018-08-25T09:13:27.793Z,51.38
2018-08-25T09:14:31.947Z,51.69
2018-08-25T09:15:36.360Z,52.13
2018-08-25T09:16:40.544Z,51.30
2018-08-25T09:17:44.749Z,51.64
2018-08-25T09:18:49.034Z,51.52
2018-08-25T09:19:53.236Z,51.85
2018-08-25T09:20:57.424Z,51.89
2018-08-25T09:22:01.632Z,51.49
2018-08-25T09:23:05.892Z,52.24
2018-08-25T09:24:10.096Z,51.53
2018-08-25T09:25:14.275Z,52.10
2018-08-25T09:26:18.431Z,51.90
2018-08-25T09:27:22.719Z,52.01
2018-08-25T09:28:26.889Z,51.50
2018-08-25T09:29:31.057Z,51.55
2018-08-25T09:30:35.487Z,52.00
2018-08-25T09:31:39.709Z,51.42
2018-08-25T09:32:44.235Z,51.34
2018-08-25T09:33:48.503Z,51.14
2018-08-25T09:34:52.735Z,51.19
2018-08-25T09:35:56.954Z,51.92
2018-08-25T09:37:01.275Z,51.54
2018-08-25T09:38:05.837Z,50.99
2018-08-25T09:39:11.090Z,51.41
2018-08-25T09:40:15.880Z,51.42
2018-08-25T09:41:20.003Z,51.77
2018-08-25T09:42:24.194Z,51.23
2018-08-25T09:43:28.423Z,51.64
2018-08-25T09:44:32.731Z,51.55
2018-08-25T09:45:36.935Z,51.26
2018-08-25T09:46:41.214Z,51.04
2018-08-25T09:47:45.449Z,51.37
2018-08-25T09:48:49.872Z,51.49
2018-08-25T09:49:54.064Z,51.36
2018-08-25T09:50:58.243Z,51.15
2018-08-25T09:52:02.453Z,51.77
2018-08-25T09:53:06.795Z,51.56
2018-08-25T09:54:11.027Z,50.94
2018-08-25T09:55:15.323Z,51.32
2018-08-25T09:56:19.582Z,50.33
2018-08-25T09:57:23.909Z,50.50
2018-08-25T09:58:28.071Z,50.31
2018-08-25T09:59:32.319Z,50.28
2018-08-25T10:00:36.614Z,50.85
2018-08-25T10:01:46.055Z,50.70
2018-08-25T10:02:50.240Z,50.46
2018-08-25T10:03:54.425Z,49.84
2018-08-25T10:04:58.684Z,49.68
2018-08-25T10:06:02.971Z,50.21
2018-08-25T10:07:07.351Z,49.73
2018-08-25T10:08:11.513Z,50.13
2018-08-25T10:09:15.696Z,49.58
2018-08-25T10:10:19.899Z,50.06
2018-08-25T10:11:24.422Z,50.40
2018-08-25T10:12:28.596Z,49.35
2018-08-25T10:13:32.809Z,49.58
2018-08-25T10:14:37.003Z,49.59
2018-08-25T10:15:41.469Z,49.10
2018-08-25T10:16:45.737Z,48.90
2018-08-25T10:17:49.955Z,48.71
2018-08-25T10:18:54.133Z,48.64
2018-08-25T10:19:58.361Z,47.88
2018-08-25T10:21:02.891Z,48.17
2018-08-25T10:22:07.113Z,47.74
2018-08-25T10:23:11.814Z,48.43
2018-08-25T10:24:16.005Z,47.75
2018-08-25T10:25:20.409Z,48.25
2018-08-25T10:26:24.665Z,48.26
2018-08-25T10:27:28.964Z,47.99
2018-08-25T10:28:33.183Z,48.76
2018-08-25T10:29:37.571Z,48.27
2018-08-25T10:30:41.828Z,48.86
2018-08-25T10:31:46.049Z,48.87
2018-08-25T10:32:50.255Z,48.78
2018-08-25T10:33:54.483Z,48.38
2018-08-25T10:34:58.873Z,48.22
2018-08-25T10:36:03.061Z,48.02
2018-08-25T10:37:07.292Z,48.21
2018-08-25T10:38:11.623Z,47.92
2018-08-25T10:39:15.823Z,47.32
2018-08-25T10:40:20.004Z,46.94
2018-08-25T10:41:24.169Z,47.30
2018-08-25T10:42:28.416Z,47.42
2018-08-25T10:43:32.582Z,47.04
2018-08-25T10:44:37.024Z,47.24
2018-08-25T10:45:41.307Z,47.46
2018-08-25T10:46:45.640Z,46.75
2018-08-25T10:47:49.856Z,47.38
2018-08-25T10:48:54.071Z,47.11
2018-08-25T10:49:58.280Z,47.46
2018-08-25T10:51:02.537Z,47.15
2018-08-25T10:52:07.033Z,46.93
2018-08-25T10:53:11.256Z,47.31
2018-08-25T10:54:21.870Z,47.19
2018-08-25T10:55:26.044Z,47.13
2018-08-25T10:56:30.244Z,47.48
2018-08-25T10:57:34.561Z,47.20
2018-08-25T10:58:38.962Z,47.17
2018-08-25T10:59:43.128Z,46.46
2018-08-25T11:00:47.527Z,46.90
2018-08-25T11:01:51.589Z,46.08
2018-08-25T11:02:55.986Z,46.27
2018-08-25T11:04:00.219Z,46.53
2018-08-25T11:05:04.740Z,46.00
2018-08-25T11:06:08.911Z,46.22
2018-08-25T11:07:13.095Z,46.83
2018-08-25T11:08:17.262Z,47.04
2018-08-25T11:09:21.527Z,47.02
2018-08-25T11:10:26.139Z,46.64
2018-08-25T11:11:30.323Z,47.12
2018-08-25T11:12:34.559Z,47.40
2018-08-25T11:13:38.770Z,47.49
2018-08-25T11:14:43.657Z,47.59
2018-08-25T11:15:48.260Z,47.48
2018-08-25T11:16:52.443Z,47.81
2018-08-25T11:17:56.781Z,47.32
2018-08-25T11:19:01.042Z,48.13
2018-08-25T11:20:05.332Z,47.61
2018-08-25T11:21:09.532Z,48.31
2018-08-25T11:22:13.731Z,48.13
2018-08-25T11:23:17.947Z,47.75
2018-08-25T11:24:22.383Z,47.66
2018-08-25T11:25:26.671Z,48.38
2018-08-25T11:26:30.956Z,48.45
2018-08-25T11:27:35.187Z,48.00
2018-08-25T11:28:39.572Z,48.41
2018-08-25T11:29:43.703Z,47.83
2018-08-25T11:30:47.927Z,47.02
2018-08-25T11:31:52.163Z,47.08
2018-08-25T11:32:56.339Z,47.56
2018-08-25T11:34:00.632Z,47.64
2018-08-25T11:35:05.897Z,47.22
2018-08-25T11:36:10.151Z,47.27
2018-08-25T11:37:14.490Z,47.55
2018-08-25T11:38:18.777Z,47.74
2018-08-25T11:39:22.971Z,47.28
2018-08-25T11:40:27.159Z,47.85
2018-08-25T11:41:32.076Z,47.76
2018-08-25T11:42:36.271Z,47.37
2018-08-25T11:43:40.540Z,47.61
2018-08-25T11:44:44.717Z,48.01
2018-08-25T11:45:48.964Z,47.17
2018-08-25T11:46:53.154Z,47.07
2018-08-25T11:47:57.308Z,47.01
2018-08-25T11:49:01.473Z,47.05
2018-08-25T11:50:06.179Z,47.06
2018-08-25T11:51:10.416Z,47.63
2018-08-25T11:52:14.781Z,46.84
2018-08-25T11:53:18.951Z,47.62
2018-08-25T11:54:23.412Z,46.75
2018-08-25T11:55:27.555Z,46.76
2018-08-25T11:56:32.188Z,47.10
2018-08-25T11:57:36.423Z,47.23
2018-08-25T11:58:40.597Z,46.75
2018-08-25T11:59:44.797Z,46.61
2018-08-25T12:00:49.133Z,46.85
2018-08-25T12:01:53.419Z,46.94
2018-08-25T12:02:57.655Z,46.12
2018-08-25T12:04:02.129Z,46.36
2018-08-25T12:05:06.560Z,45.94
2018-08-25T12:06:10.749Z,45.91
2018-08-25T12:07:14.936Z,46.07
2018-08-25T12:08:19.192Z,45.52
2018-08-25T12:09:23.428Z,45.76
2018-08-25T12:10:27.587Z,45.33
2018-08-25T12:11:31.770Z,45.74
2018-08-25T12:12:35.956Z,45.08
2018-08-25T12:13:40.139Z,45.37
2018-08-25T12:14:44.351Z,45.77
2018-08-25T12:15:48.939Z,45.32
2018-08-25T12:16:53.106Z,45.61
2018-08-25T12:17:57.371Z,45.46
2018-08-25T12:19:01.521Z,46.46
2018-08-25T12:20:06.214Z,45.64
2018-08-25T12:21:10.350Z,45.83
2018-08-25T12:22:14.518Z,45.70
2018-08-25T12:23:18.733Z,45.49
2018-08-25T12:24:22.911Z,45.57
2018-08-25T12:25:27.095Z,45.75
2018-08-25T12:26:31.391Z,45.17
2018-08-25T12:27:35.587Z,44.79
2018-08-25T12:28:39.935Z,44.66
2018-08-25T12:29:44.111Z,44.31
2018-08-25T12:30:48.281Z,44.41
2018-08-25T12:31:52.621Z,44.94
2018-08-25T12:32:57.068Z,44.28
2018-08-25T12:34:01.257Z,44.07
2018-08-25T12:35:05.717Z,45.33
2018-08-25T12:36:09.996Z,45.14
2018-08-25T12:37:14.237Z,45.00
2018-08-25T12:38:18.753Z,45.76
2018-08-25T12:39:23.073Z,46.04
2018-08-25T12:40:27.254Z,45.90
2018-08-25T12:41:31.460Z,45.23
2018-08-25T12:42:35.664Z,45.43
2018-08-25T12:43:39.813Z,46.19
2018-08-25T12:44:44.496Z,45.56
2018-08-25T12:45:48.701Z,45.06
2018-08-25T12:46:53.035Z,45.78
2018-08-25T12:47:57.374Z,45.39
2018-08-25T12:49:01.613Z,45.00
2018-08-25T12:50:05.920Z,45.07
2018-08-25T12:51:10.138Z,45.28
2018-08-25T12:52:14.289Z,45.42
2018-08-25T12:53:18.428Z,44.97
2018-08-25T12:54:22.615Z,45.24
2018-08-25T12:55:26.841Z,44.79
2018-08-25T12:56:30.960Z,45.21
2018-08-25T12:57:35.279Z,45.08
2018-08-25T12:58:39.462Z,44.70
2018-08-25T12:59:46.806Z,44.39
2018-08-25T13:00:51.098Z,44.62
2018-08-25T13:01:55.471Z,44.41
2018-08-25T13:02:59.734Z,45.18
2018-08-25T13:04:06.333Z,44.94
2018-08-25T13:05:10.523Z,45.10
2018-08-25T13:06:14.663Z,44.62
2018-08-25T13:07:18.882Z,44.43
2018-08-25T13:08:23.059Z,44.40
2018-08-25T13:09:27.552Z,44.08
2018-08-25T13:10:31.743Z,43.98
2018-08-25T13:11:36.249Z,44.61
2018-08-25T13:12:40.445Z,44.59
2018-08-25T13:13:44.674Z,44.13
2018-08-25T13:14:48.899Z,45.00
2018-08-25T13:15:53.294Z,44.54
2018-08-25T13:16:57.484Z,45.19
2018-08-25T13:18:01.810Z,45.36
2018-08-25T13:19:06.192Z,45.53
2018-08-25T13:20:10.525Z,46.25
2018-08-25T13:21:14.759Z,45.75
2018-08-25T13:22:18.979Z,46.61
2018-08-25T13:23:23.204Z,45.99
2018-08-25T13:24:27.368Z,45.95
2018-08-25T13:25:31.586Z,45.71
2018-08-25T13:26:35.810Z,45.86
2018-08-25T13:27:40.218Z,45.57
2018-08-25T13:28:44.491Z,45.52
2018-08-25T13:29:48.781Z,45.32
2018-08-25T13:30:53.093Z,45.45
2018-08-25T13:31:57.331Z,45.03
2018-08-25T13:33:01.575Z,44.68
2018-08-25T13:34:05.943Z,44.57
2018-08-25T13:35:10.137Z,44.16
2018-08-25T13:36:14.348Z,43.99
2018-08-25T13:37:18.555Z,44.85
2018-08-25T13:38:22.903Z,44.12
2018-08-25T13:39:27.357Z,43.78
2018-08-25T13:40:31.909Z,43.73
2018-08-25T13:41:36.564Z,43.86
2018-08-25T13:42:40.882Z,44.13
2018-08-25T13:43:45.080Z,43.97
2018-08-25T13:44:49.600Z,44.19
2018-08-25T13:45:53.834Z,44.57
2018-08-25T13:46:58.208Z,44.94
2018-08-25T13:48:02.506Z,44.17
2018-08-25T13:49:06.946Z,44.72